Time;durP1;ratioP1;P1;durP2;ratioP2;P2;SDS_P1;SDS_P2;PMS_P1;PMS_P2;Temp;Humidity;BMP_temperature;BMP_pressure;BME280_temperature;BME280_humidity;BME280_pressure;Samples;Min_cycle;Max_cycle;Signal;HPM_P1;HPM_P2
2021/03/16 00:01:55;;;;;;;24.77;20.55;;;;;;;;;;5036207;28;20221;-75
2021/03/16 00:04:22;;;;;;;22.38;20.38;;;;;;;;;;5035475;28;20597;-75
2021/03/16 00:06:49;;;;;;;23.30;20.33;;;;;;;;;;5036476;28;20539;-75
2021/03/16 00:09:15;;;;;;;27.55;21.55;;;;;;;;;;5036037;28;20597;-75
2021/03/16 00:11:42;;;;;;;24.13;21.70;;;;;;;;;;5036744;28;20236;-75
2021/03/16 00:14:09;;;;;;;23.48;21.17;;;;;;;;;;5035951;28;20315;-75
2021/03/16 00:16:36;;;;;;;22.80;20.02;;;;;;;;;;5035738;28;20190;-75
2021/03/16 00:19:04;;;;;;;27.10;21.30;;;;;;;;;;5036080;28;20221;-75
2021/03/16 00:21:31;;;;;;;22.30;20.20;;;;;;;;;;5035950;28;20207;-75
2021/03/16 00:23:58;;;;;;;25.38;20.75;;;;;;;;;;5018223;28;20210;-75
2021/03/16 00:26:25;;;;;;;23.17;20.85;;;;;;;;;;5035770;28;20190;-76
2021/03/16 00:28:51;;;;;;;23.20;21.35;;;;;;;;;;5035813;28;20204;-75
2021/03/16 00:31:19;;;;;;;24.20;21.60;;;;;;;;;;5035757;28;20217;-75
2021/03/16 00:33:46;;;;;;;27.23;21.30;;;;;;;;;;5018496;28;20574;-75
2021/03/16 00:36:16;;;;;;;31.02;19.88;;;;;;;;;;5035546;28;20590;-75
2021/03/16 00:38:42;;;;;;;23.92;21.85;;;;;;;;;;5018124;28;20691;-75
2021/03/16 00:41:09;;;;;;;22.83;20.67;;;;;;;;;;5035707;28;20521;-75
2021/03/16 00:43:36;;;;;;;22.27;20.15;;;;;;;;;;5037854;28;20194;-74
2021/03/16 00:46:04;;;;;;;25.00;21.48;;;;;;;;;;5036854;28;20555;-75
2021/03/16 00:48:31;;;;;;;28.75;20.88;;;;;;;;;;5037423;28;20197;-75
2021/03/16 00:50:59;;;;;;;25.30;21.70;;;;;;;;;;5040150;28;20194;-75
2021/03/16 00:53:27;;;;;;;23.98;21.52;;;;;;;;;;5037540;28;20675;-75
2021/03/16 00:55:54;;;;;;;23.08;20.92;;;;;;;;;;5036871;28;20189;-75
2021/03/16 00:58:30;;;;;;;28.23;20.65;;;;;;;;;;5036622;28;20243;-75
2021/03/16 01:00:57;;;;;;;23.48;21.23;;;;;;;;;;5039091;28;20190;-74
2021/03/16 01:03:28;;;;;;;22.25;20.08;;;;;;;;;;5040746;28;20560;-75
2021/03/16 01:05:55;;;;;;;22.73;20.83;;;;;;;;;;5039928;28;20217;-75
2021/03/16 01:08:26;;;;;;;27.08;21.55;;;;;;;;;;5038138;28;20202;-75
2021/03/16 01:10:55;;;;;;;27.30;20.13;;;;;;;;;;5037968;28;20204;-75
2021/03/16 01:13:23;;;;;;;23.00;20.83;;;;;;;;;;5039103;28;20190;-75
2021/03/16 01:15:52;;;;;;;23.17;20.98;;;;;;;;;;5040010;28;20229;-75
2021/03/16 01:18:19;;;;;;;24.45;20.48;;;;;;;;;;5038532;28;20308;-76
2021/03/16 01:20:46;;;;;;;27.23;22.08;;;;;;;;;;5036229;28;20194;-75
2021/03/16 01:23:15;;;;;;;24.77;22.27;;;;;;;;;;5040042;28;20189;-75
2021/03/16 01:25:43;;;;;;;22.90;21.00;;;;;;;;;;5038156;28;20209;-75
2021/03/16 01:28:11;;;;;;;24.20;21.80;;;;;;;;;;5035601;28;20251;-75
2021/03/16 01:30:38;;;;;;;28.23;22.98;;;;;;;;;;5017213;28;20202;-75
2021/03/16 01:33:07;;;;;;;22.90;20.50;;;;;;;;;;5017735;28;20211;-75
2021/03/16 01:35:34;;;;;;;23.50;20.75;;;;;;;;;;5035063;28;20225;-75
2021/03/16 01:38:03;;;;;;;22.55;20.88;;;;;;;;;;5035697;28;20627;-75
2021/03/16 01:40:35;;;;;;;23.70;21.17;;;;;;;;;;5035294;28;20189;-75
2021/03/16 01:43:10;;;;;;;28.33;21.42;;;;;;;;;;5035644;28;20255;-75
2021/03/16 01:45:49;;;;;;;22.90;20.73;;;;;;;;;;5035489;28;20197;-75
2021/03/16 01:48:18;;;;;;;23.90;20.60;;;;;;;;;;5034897;28;20186;-75
2021/03/16 01:50:51;;;;;;;22.52;20.30;;;;;;;;;;5034609;28;20194;-76
2021/03/16 01:53:18;;;;;;;26.15;21.27;;;;;;;;;;5037001;28;20186;-75
2021/03/16 01:55:47;;;;;;;23.25;21.08;;;;;;;;;;5036790;28;20240;-75
2021/03/16 01:58:14;;;;;;;23.05;20.95;;;;;;;;;;5036333;28;20239;-75
2021/03/16 02:00:44;;;;;;;21.45;19.65;;;;;;;;;;5036911;28;20241;-75
2021/03/16 02:03:12;;;;;;;21.90;20.30;;;;;;;;;;5036401;28;20244;-75
2021/03/16 02:05:40;;;;;;;23.20;21.00;;;;;;;;;;5018340;28;20654;-76
2021/03/16 02:08:11;;;;;;;24.95;22.02;;;;;;;;;;5035685;28;20202;-76
2021/03/16 02:10:44;;;;;;;21.67;20.15;;;;;;;;;;5035983;28;20555;-75
2021/03/16 02:13:13;;;;;;;22.20;20.27;;;;;;;;;;5035870;28;20194;-76
2021/03/16 02:15:43;;;;;;;24.27;21.65;;;;;;;;;;5013913;28;20236;-75
2021/03/16 02:18:12;;;;;;;23.92;20.90;;;;;;;;;;5016115;28;20560;-75
2021/03/16 02:20:53;;;;;;;24.60;20.88;;;;;;;;;;5015289;28;20205;-75
2021/03/16 02:23:22;;;;;;;23.50;21.48;;;;;;;;;;5014925;28;20202;-75
2021/03/16 02:28:47;;;;;;;23.42;21.13;;;;;;;;;;5016318;28;20210;-75
2021/03/16 02:31:18;;;;;;;22.92;20.63;;;;;;;;;;5018570;28;20656;-75
2021/03/16 02:33:46;;;;;;;24.02;22.13;;;;;;;;;;5018081;28;20194;-74
2021/03/16 02:36:14;;;;;;;20.90;19.40;;;;;;;;;;5015013;28;20221;-74
2021/03/16 02:38:43;;;;;;;22.17;20.50;;;;;;;;;;5014804;28;20225;-75
2021/03/16 02:41:13;;;;;;;22.13;20.15;;;;;;;;;;5015086;28;20624;-75
2021/03/16 02:43:40;;;;;;;23.08;21.10;;;;;;;;;;5014560;28;20190;-75
2021/03/16 02:46:07;;;;;;;22.80;20.70;;;;;;;;;;5014227;28;20639;-75
2021/03/16 02:48:36;;;;;;;23.23;21.08;;;;;;;;;;5014848;28;20239;-75
2021/03/16 02:51:05;;;;;;;24.65;21.65;;;;;;;;;;5014373;28;20195;-75
2021/03/16 02:53:32;;;;;;;23.15;21.10;;;;;;;;;;5014382;28;20201;-75
2021/03/16 02:56:00;;;;;;;24.27;20.30;;;;;;;;;;5014784;28;20248;-75
2021/03/16 02:58:28;;;;;;;22.00;20.15;;;;;;;;;;5015480;28;20672;-75
2021/03/16 03:00:55;;;;;;;23.27;21.02;;;;;;;;;;5014687;28;20194;-75
2021/03/16 03:03:23;;;;;;;21.08;19.52;;;;;;;;;;5018725;28;20198;-75
2021/03/16 03:05:51;;;;;;;21.50;19.95;;;;;;;;;;5017853;28;20194;-76
2021/03/16 03:08:19;;;;;;;21.35;19.55;;;;;;;;;;5018485;28;20198;-76
2021/03/16 03:10:45;;;;;;;21.45;19.20;;;;;;;;;;5017986;28;20284;-75
2021/03/16 03:13:12;;;;;;;22.50;20.55;;;;;;;;;;5018419;28;20208;-75
2021/03/16 03:15:39;;;;;;;24.15;21.40;;;;;;;;;;5033265;28;20290;-75
2021/03/16 03:18:06;;;;;;;23.08;20.88;;;;;;;;;;5038131;28;20268;-75
2021/03/16 03:20:34;;;;;;;22.40;20.25;;;;;;;;;;5037406;28;20580;-76
2021/03/16 03:23:04;;;;;;;22.05;20.05;;;;;;;;;;5037335;28;20236;-75
2021/03/16 03:25:31;;;;;;;23.90;21.52;;;;;;;;;;5037948;28;20200;-76
2021/03/16 03:28:00;;;;;;;26.77;21.83;;;;;;;;;;5036878;28;20205;-75
2021/03/16 03:30:28;;;;;;;22.13;20.20;;;;;;;;;;5037808;28;20200;-75
2021/03/16 03:32:59;;;;;;;27.65;21.85;;;;;;;;;;5038129;28;20190;-75
2021/03/16 03:35:28;;;;;;;23.80;21.40;;;;;;;;;;5038024;28;20694;-75
2021/03/16 03:37:56;;;;;;;21.63;19.52;;;;;;;;;;5039818;28;20224;-75
2021/03/16 03:40:26;;;;;;;24.42;21.92;;;;;;;;;;5040785;28;20213;-76
2021/03/16 03:42:54;;;;;;;33.00;21.88;;;;;;;;;;5037507;28;20264;-75
2021/03/16 03:45:21;;;;;;;26.55;20.02;;;;;;;;;;5037462;28;20196;-75
2021/03/16 03:47:48;;;;;;;22.80;20.58;;;;;;;;;;5038646;28;20184;-75
2021/03/16 03:50:15;;;;;;;22.20;20.25;;;;;;;;;;5038773;28;20211;-75
2021/03/16 03:52:45;;;;;;;24.63;21.50;;;;;;;;;;5037213;28;20189;-76
2021/03/16 03:55:12;;;;;;;24.05;19.85;;;;;;;;;;5037412;28;20197;-75
2021/03/16 03:57:41;;;;;;;21.63;19.55;;;;;;;;;;5036579;28;20255;-75
2021/03/16 04:00:11;;;;;;;25.27;21.65;;;;;;;;;;5036849;28;20190;-75
2021/03/16 04:02:38;;;;;;;21.73;19.92;;;;;;;;;;5019026;28;20197;-75
2021/03/16 04:05:08;;;;;;;21.58;19.48;;;;;;;;;;5036238;28;20200;-75
2021/03/16 04:07:39;;;;;;;21.65;19.80;;;;;;;;;;5037512;28;20201;-74
2021/03/16 04:10:06;;;;;;;25.08;19.67;;;;;;;;;;5038143;28;20224;-76
2021/03/16 04:12:35;;;;;;;23.65;20.45;;;;;;;;;;5036556;28;20243;-75
2021/03/16 04:15:04;;;;;;;23.20;21.00;;;;;;;;;;5037620;28;20638;-75
2021/03/16 04:17:31;;;;;;;22.42;20.10;;;;;;;;;;5019285;28;20616;-75
2021/03/16 04:19:58;;;;;;;26.65;20.25;;;;;;;;;;5036421;28;20216;-75
2021/03/16 04:22:29;;;;;;;21.83;20.05;;;;;;;;;;5037911;28;20198;-75
2021/03/16 04:24:56;;;;;;;23.23;20.90;;;;;;;;;;5037797;28;20185;-75
2021/03/16 04:27:23;;;;;;;21.77;19.70;;;;;;;;;;5036408;28;20193;-75
2021/03/16 04:29:50;;;;;;;22.88;20.58;;;;;;;;;;5036511;28;20189;-75
2021/03/16 04:32:18;;;;;;;24.80;20.35;;;;;;;;;;5036775;28;20525;-75
2021/03/16 04:34:45;;;;;;;23.42;21.38;;;;;;;;;;5037058;28;20558;-75
2021/03/16 04:37:12;;;;;;;24.48;20.75;;;;;;;;;;5036426;28;20201;-75
2021/03/16 04:39:39;;;;;;;24.33;20.00;;;;;;;;;;5036480;28;20216;-75
2021/03/16 04:42:07;;;;;;;22.90;20.95;;;;;;;;;;5037372;28;20196;-74
2021/03/16 04:44:34;;;;;;;22.80;20.88;;;;;;;;;;5037115;28;20189;-75
2021/03/16 04:47:01;;;;;;;22.98;20.67;;;;;;;;;;5036009;28;20193;-75
2021/03/16 04:52:23;;;;;;;22.50;20.40;;;;;;;;;;5048336;28;20197;-74
2021/03/16 04:54:54;;;;;;;22.17;20.00;;;;;;;;;;5050156;28;20203;-75
2021/03/16 04:57:21;;;;;;;22.23;19.60;;;;;;;;;;5049802;28;20208;-75
2021/03/16 04:59:48;;;;;;;21.95;20.00;;;;;;;;;;5049432;28;20189;-75
2021/03/16 05:02:16;;;;;;;22.50;20.10;;;;;;;;;;5045303;28;20265;-75
2021/03/16 05:04:44;;;;;;;21.15;19.42;;;;;;;;;;5026565;28;20189;-75
2021/03/16 05:07:11;;;;;;;23.15;21.25;;;;;;;;;;5044475;28;20204;-75
2021/03/16 05:09:38;;;;;;;24.25;21.58;;;;;;;;;;5043609;28;20289;-75
2021/03/16 05:12:06;;;;;;;38.25;22.27;;;;;;;;;;5044947;28;20208;-75
2021/03/16 05:14:33;;;;;;;23.15;20.45;;;;;;;;;;5044859;28;20319;-75
2021/03/16 05:17:00;;;;;;;28.00;22.33;;;;;;;;;;5043756;28;20193;-76
2021/03/16 05:19:29;;;;;;;57.83;26.65;;;;;;;;;;5043500;28;20230;-75
2021/03/16 05:21:57;;;;;;;24.88;22.58;;;;;;;;;;5045033;28;20205;-75
2021/03/16 05:24:24;;;;;;;28.25;21.38;;;;;;;;;;5044411;28;20231;-75
2021/03/16 05:26:51;;;;;;;444.60;87.57;;;;;;;;;;5044253;28;20207;-76
2021/03/16 05:29:18;;;;;;;23.35;20.92;;;;;;;;;;5044501;28;20586;-75
2021/03/16 05:31:45;;;;;;;22.67;20.67;;;;;;;;;;5040446;28;20623;-73
2021/03/16 05:34:12;;;;;;;22.50;20.20;;;;;;;;;;5035110;28;20193;-73
2021/03/16 05:36:39;;;;;;;22.70;20.40;;;;;;;;;;5034857;28;20245;-74
2021/03/16 05:39:08;;;;;;;23.58;21.00;;;;;;;;;;5035045;28;20232;-74
2021/03/16 05:41:36;;;;;;;23.90;21.13;;;;;;;;;;5035198;28;20188;-74
2021/03/16 05:44:04;;;;;;;23.05;21.15;;;;;;;;;;5036666;28;20296;-74
2021/03/16 05:46:32;;;;;;;24.08;21.70;;;;;;;;;;5035487;28;20205;-74
2021/03/16 05:49:02;;;;;;;23.52;21.55;;;;;;;;;;5035522;28;20204;-74
2021/03/16 05:51:30;;;;;;;22.35;20.08;;;;;;;;;;5035446;28;20201;-73
2021/03/16 05:53:57;;;;;;;23.25;20.85;;;;;;;;;;5035134;28;20629;-74
2021/03/16 05:56:25;;;;;;;23.15;20.92;;;;;;;;;;5034897;28;20204;-73
2021/03/16 05:58:53;;;;;;;23.95;21.63;;;;;;;;;;5034738;28;20226;-74
2021/03/16 06:01:20;;;;;;;24.70;22.38;;;;;;;;;;5034774;28;20202;-74
2021/03/16 06:03:48;;;;;;;23.65;21.40;;;;;;;;;;5034554;28;20193;-74
2021/03/16 06:06:15;;;;;;;24.50;22.33;;;;;;;;;;5035373;28;20192;-74
2021/03/16 06:08:42;;;;;;;22.15;20.35;;;;;;;;;;5034519;28;20193;-76
2021/03/16 06:11:10;;;;;;;22.88;20.98;;;;;;;;;;5035180;28;20216;-75
2021/03/16 06:13:54;;;;;;;23.35;21.45;;;;;;;;;;5035012;28;20271;-74
2021/03/16 06:16:21;;;;;;;23.10;21.15;;;;;;;;;;5035784;28;20276;-74
2021/03/16 06:18:49;;;;;;;21.83;19.92;;;;;;;;;;5035775;28;20212;-74
2021/03/16 06:21:20;;;;;;;22.98;20.83;;;;;;;;;;5036136;28;20200;-75
2021/03/16 06:23:54;;;;;;;23.90;21.85;;;;;;;;;;5035186;28;20655;-74
2021/03/16 06:26:24;;;;;;;23.33;21.20;;;;;;;;;;5035142;28;20204;-74
2021/03/16 06:28:52;;;;;;;23.30;20.45;;;;;;;;;;5035621;28;20546;-74
2021/03/16 06:31:24;;;;;;;22.13;20.33;;;;;;;;;;5035489;28;20190;-74
2021/03/16 06:33:51;;;;;;;160.57;48.95;;;;;;;;;;5035463;28;20206;-74
2021/03/16 06:36:18;;;;;;;24.02;21.88;;;;;;;;;;5039473;28;20705;-74
2021/03/16 06:38:45;;;;;;;22.60;20.80;;;;;;;;;;5040941;28;20240;-73
2021/03/16 06:41:13;;;;;;;22.48;20.52;;;;;;;;;;5023737;28;20218;-76
2021/03/16 06:43:40;;;;;;;24.65;21.90;;;;;;;;;;5042579;28;20193;-74
2021/03/16 06:46:08;;;;;;;23.70;21.55;;;;;;;;;;5041502;28;20198;-73
2021/03/16 06:48:35;;;;;;;23.80;22.02;;;;;;;;;;5043987;28;20595;-75
2021/03/16 06:51:09;;;;;;;23.23;20.92;;;;;;;;;;5043768;28;20227;-74
2021/03/16 06:53:37;;;;;;;27.77;22.83;;;;;;;;;;5046365;28;20523;-75
2021/03/16 06:56:05;;;;;;;23.25;21.38;;;;;;;;;;5047726;28;20707;-74
2021/03/16 06:58:33;;;;;;;57.10;44.97;;;;;;;;;;5053158;28;20260;-74
2021/03/16 07:01:04;;;;;;;22.95;21.05;;;;;;;;;;5046935;28;20185;-73
2021/03/16 07:03:33;;;;;;;22.98;21.20;;;;;;;;;;5043351;28;20340;-74
2021/03/16 07:06:08;;;;;;;27.35;21.10;;;;;;;;;;5042801;28;20642;-74
2021/03/16 07:08:37;;;;;;;23.83;21.63;;;;;;;;;;5042581;28;20190;-74
2021/03/16 07:13:47;;;;;;;27.80;21.23;;;;;;;;;;5042055;28;20219;-73
2021/03/16 07:16:15;;;;;;;22.58;20.95;;;;;;;;;;5024284;28;20212;-74
2021/03/16 07:18:47;;;;;;;24.25;22.13;;;;;;;;;;5023317;28;20226;-74
2021/03/16 07:21:25;;;;;;;23.15;20.90;;;;;;;;;;5023518;28;20278;-74
2021/03/16 07:23:54;;;;;;;22.88;20.77;;;;;;;;;;5023432;28;20206;-75
2021/03/16 07:26:21;;;;;;;24.90;22.70;;;;;;;;;;5023694;28;20205;-74
2021/03/16 07:28:54;;;;;;;25.98;23.58;;;;;;;;;;5023039;28;20612;-74
2021/03/16 07:31:25;;;;;;;23.00;20.90;;;;;;;;;;5026785;28;20222;-74
2021/03/16 07:33:53;;;;;;;24.23;21.77;;;;;;;;;;5026943;28;20692;-75
2021/03/16 07:36:21;;;;;;;24.60;22.60;;;;;;;;;;5027965;28;20224;-74
2021/03/16 07:38:53;;;;;;;28.70;22.40;;;;;;;;;;5030292;28;20225;-74
2021/03/16 07:41:22;;;;;;;23.27;21.38;;;;;;;;;;5034294;28;20233;-74
2021/03/16 07:43:49;;;;;;;23.35;21.10;;;;;;;;;;5032479;28;20221;-73
2021/03/16 07:46:18;;;;;;;23.00;20.80;;;;;;;;;;5033487;28;20202;-74
2021/03/16 07:48:52;;;;;;;26.08;21.95;;;;;;;;;;5033553;28;20210;-75
2021/03/16 07:51:22;;;;;;;22.70;20.73;;;;;;;;;;5029340;28;20261;-74
2021/03/16 07:53:56;;;;;;;22.15;20.10;;;;;;;;;;5025240;28;20202;-74
2021/03/16 07:56:27;;;;;;;22.90;20.60;;;;;;;;;;5023037;28;20619;-72
2021/03/16 07:58:55;;;;;;;24.15;21.55;;;;;;;;;;5024180;28;20226;-74
2021/03/16 08:01:23;;;;;;;22.35;20.23;;;;;;;;;;5026141;28;20276;-73
2021/03/16 08:03:51;;;;;;;22.88;21.10;;;;;;;;;;5027869;28;20233;-74
2021/03/16 08:06:24;;;;;;;22.45;20.80;;;;;;;;;;5024456;28;20210;-76
2021/03/16 08:08:52;;;;;;;23.65;21.40;;;;;;;;;;5025818;28;20202;-73
2021/03/16 08:11:20;;;;;;;25.23;23.20;;;;;;;;;;5026559;28;20252;-74
2021/03/16 08:16:48;;;;;;;23.13;20.80;;;;;;;;;;5082744;28;20197;-74
2021/03/16 08:19:22;;;;;;;21.58;19.85;;;;;;;;;;5085243;28;20227;-74
2021/03/16 08:21:58;;;;;;;24.83;22.35;;;;;;;;;;5084820;28;20193;-71
2021/03/16 08:24:36;;;;;;;22.52;20.55;;;;;;;;;;5082685;28;20210;-73
2021/03/16 08:27:04;;;;;;;24.80;22.95;;;;;;;;;;5067452;28;20204;-74
2021/03/16 08:29:36;;;;;;;23.25;20.92;;;;;;;;;;5085080;28;20200;-74
2021/03/16 08:32:05;;;;;;;21.98;20.33;;;;;;;;;;5084990;28;20225;-74
2021/03/16 08:34:40;;;;;;;21.75;19.80;;;;;;;;;;5083018;28;20221;-74
2021/03/16 08:37:09;;;;;;;21.88;20.40;;;;;;;;;;5082980;28;20184;-74
2021/03/16 08:39:37;;;;;;;20.52;19.13;;;;;;;;;;5083901;28;20233;-75
2021/03/16 08:42:05;;;;;;;21.52;19.60;;;;;;;;;;5084994;28;20204;-75
2021/03/16 08:44:35;;;;;;;20.95;19.48;;;;;;;;;;5084502;28;20214;-75
2021/03/16 08:47:09;;;;;;;23.10;20.85;;;;;;;;;;5082595;28;20215;-73
2021/03/16 08:49:39;;;;;;;21.00;19.20;;;;;;;;;;5085522;28;20293;-74
2021/03/16 08:52:15;;;;;;;20.92;19.50;;;;;;;;;;5088183;28;20560;-75
2021/03/16 08:54:44;;;;;;;22.83;20.55;;;;;;;;;;5088272;28;20200;-74
2021/03/16 08:57:11;;;;;;;20.35;18.77;;;;;;;;;;5087991;28;20205;-75
2021/03/16 08:59:39;;;;;;;20.30;18.88;;;;;;;;;;5084588;28;20290;-74
2021/03/16 09:02:06;;;;;;;20.45;18.80;;;;;;;;;;5081497;28;20224;-76
2021/03/16 09:04:35;;;;;;;21.17;19.27;;;;;;;;;;5080255;28;20296;-74
2021/03/16 09:09:45;;;;;;;20.98;18.88;;;;;;;;;;5082348;28;20642;-74
2021/03/16 09:12:13;;;;;;;20.05;18.73;;;;;;;;;;5078785;28;20205;-75
2021/03/16 09:14:40;;;;;;;20.08;18.85;;;;;;;;;;5078993;28;20238;-74
2021/03/16 09:17:08;;;;;;;21.70;19.45;;;;;;;;;;5084872;28;20210;-74
2021/03/16 09:19:38;;;;;;;21.95;20.10;;;;;;;;;;5085002;28;20625;-75
2021/03/16 09:22:10;;;;;;;20.35;19.10;;;;;;;;;;5082583;28;20197;-74
2021/03/16 09:24:38;;;;;;;29.58;21.95;;;;;;;;;;5079000;28;20288;-73
2021/03/16 09:27:07;;;;;;;21.88;19.98;;;;;;;;;;5079192;28;20201;-73
2021/03/16 09:29:36;;;;;;;21.42;19.95;;;;;;;;;;5079270;28;20202;-74
2021/03/16 09:32:06;;;;;;;21.52;19.73;;;;;;;;;;5078649;28;20653;-74
2021/03/16 09:34:36;;;;;;;19.95;18.65;;;;;;;;;;5077840;28;20307;-72
2021/03/16 09:40:05;;;;;;;21.60;20.00;;;;;;;;;;5078538;28;20230;-74
2021/03/16 09:42:35;;;;;;;22.60;21.08;;;;;;;;;;5079043;28;20211;-73
2021/03/16 09:45:05;;;;;;;22.15;20.25;;;;;;;;;;5079020;28;20202;-73
2021/03/16 09:47:36;;;;;;;22.70;20.60;;;;;;;;;;5082035;28;20200;-74
2021/03/16 09:50:06;;;;;;;22.38;20.52;;;;;;;;;;5078067;28;20621;-74
2021/03/16 09:52:33;;;;;;;23.08;21.40;;;;;;;;;;5078761;28;20209;-74
2021/03/16 09:55:01;;;;;;;23.00;21.38;;;;;;;;;;5078130;28;20206;-74
2021/03/16 09:57:37;;;;;;;22.25;20.70;;;;;;;;;;5078056;28;20193;-74
2021/03/16 10:00:07;;;;;;;20.63;19.13;;;;;;;;;;5079519;28;20683;-75
2021/03/16 10:02:37;;;;;;;21.60;20.00;;;;;;;;;;5079142;28;20722;-73
2021/03/16 10:05:06;;;;;;;21.60;20.10;;;;;;;;;;5079476;28;20199;-74
2021/03/16 10:07:34;;;;;;;21.13;19.40;;;;;;;;;;5079250;28;20243;-74
2021/03/16 10:10:22;;;;;;;20.80;19.50;;;;;;;;;;5078475;28;20568;-74
2021/03/16 10:12:53;;;;;;;21.88;20.25;;;;;;;;;;5076135;28;20203;-75
2021/03/16 10:15:28;;;;;;;22.63;21.13;;;;;;;;;;5075887;28;20238;-75
2021/03/16 10:17:56;;;;;;;22.67;21.05;;;;;;;;;;5073495;28;20194;-75
2021/03/16 10:20:25;;;;;;;23.13;21.20;;;;;;;;;;5073507;28;20638;-75
2021/03/16 10:22:59;;;;;;;21.77;20.27;;;;;;;;;;5073550;28;20192;-75
2021/03/16 10:25:27;;;;;;;21.88;20.33;;;;;;;;;;5073520;28;20532;-74
2021/03/16 10:27:55;;;;;;;22.17;20.40;;;;;;;;;;5073667;28;20191;-75
2021/03/16 10:30:28;;;;;;;22.27;20.58;;;;;;;;;;5073839;28;20183;-75
2021/03/16 10:32:56;;;;;;;22.27;20.65;;;;;;;;;;5073760;28;20237;-75
2021/03/16 10:35:23;;;;;;;22.55;20.95;;;;;;;;;;5073888;28;20188;-75
2021/03/16 10:37:50;;;;;;;22.15;20.63;;;;;;;;;;5073878;28;20183;-74
2021/03/16 10:40:17;;;;;;;21.05;19.73;;;;;;;;;;5073799;28;20278;-74
2021/03/16 10:42:44;;;;;;;22.90;21.08;;;;;;;;;;5074022;28;20197;-75
2021/03/16 10:45:11;;;;;;;22.17;20.45;;;;;;;;;;5073441;28;20190;-74
2021/03/16 10:47:38;;;;;;;21.55;20.13;;;;;;;;;;5073821;28;20675;-74
2021/03/16 10:50:08;;;;;;;20.60;19.20;;;;;;;;;;5077150;28;20199;-75
2021/03/16 10:52:35;;;;;;;21.30;19.90;;;;;;;;;;5078443;28;20191;-74
2021/03/16 10:55:02;;;;;;;22.65;20.77;;;;;;;;;;5076366;28;20639;-75
2021/03/16 10:57:29;;;;;;;22.60;20.80;;;;;;;;;;5073418;28;20245;-75
2021/03/16 10:59:56;;;;;;;21.50;20.20;;;;;;;;;;5073244;28;20215;-75
2021/03/16 11:02:23;;;;;;;21.45;19.92;;;;;;;;;;5073646;28;20194;-75
2021/03/16 11:04:50;;;;;;;22.45;20.90;;;;;;;;;;5073387;28;20715;-74
2021/03/16 11:07:18;;;;;;;22.48;20.85;;;;;;;;;;5073553;28;20187;-75
2021/03/16 11:09:46;;;;;;;21.67;20.27;;;;;;;;;;5073104;28;20219;-75
2021/03/16 11:12:13;;;;;;;23.33;21.00;;;;;;;;;;5056013;28;20203;-74
2021/03/16 11:14:50;;;;;;;23.40;21.50;;;;;;;;;;5073490;28;20238;-74
2021/03/16 11:17:17;;;;;;;22.77;21.17;;;;;;;;;;5073717;28;20197;-75
2021/03/16 11:19:43;;;;;;;22.67;20.70;;;;;;;;;;5073233;28;20575;-74
2021/03/16 11:22:10;;;;;;;22.07;20.67;;;;;;;;;;5074380;28;20194;-74
2021/03/16 11:24:39;;;;;;;24.58;22.50;;;;;;;;;;5077237;28;20426;-74
2021/03/16 11:27:06;;;;;;;22.73;20.83;;;;;;;;;;5077942;28;20191;-75
2021/03/16 11:29:33;;;;;;;22.30;20.80;;;;;;;;;;5078909;28;20412;-74
2021/03/16 11:32:00;;;;;;;23.03;21.33;;;;;;;;;;5076988;28;20510;-75
2021/03/16 11:34:30;;;;;;;23.27;21.13;;;;;;;;;;5076914;28;20440;-74
2021/03/16 11:36:57;;;;;;;22.97;21.43;;;;;;;;;;5077366;28;20655;-75
2021/03/16 11:39:23;;;;;;;22.63;21.03;;;;;;;;;;5079505;28;20533;-74
2021/03/16 11:41:55;;;;;;;22.60;20.90;;;;;;;;;;5076760;28;20460;-74
2021/03/16 11:44:24;;;;;;;22.80;21.23;;;;;;;;;;5078764;28;20495;-74
2021/03/16 11:46:51;;;;;;;24.52;22.63;;;;;;;;;;5078922;28;20632;-74
2021/03/16 11:49:18;;;;;;;23.23;21.63;;;;;;;;;;5078570;28;20210;-74
2021/03/16 11:51:51;;;;;;;24.63;22.70;;;;;;;;;;5082661;28;20468;-74
2021/03/16 11:54:22;;;;;;;23.00;21.50;;;;;;;;;;5081124;28;20756;-74
2021/03/16 11:56:49;;;;;;;24.13;22.35;;;;;;;;;;5080427;28;20517;-74
2021/03/16 11:59:23;;;;;;;22.07;20.57;;;;;;;;;;5078414;28;20706;-74
2021/03/16 12:01:51;;;;;;;24.00;22.40;;;;;;;;;;5077346;28;20451;-74
2021/03/16 12:04:17;;;;;;;24.25;22.52;;;;;;;;;;5077566;28;20447;-75
2021/03/16 12:06:46;;;;;;;23.70;22.05;;;;;;;;;;5078033;28;20202;-75
2021/03/16 12:12:17;;;;;;;26.33;24.43;;;;;;;;;;5077711;28;20433;-74
2021/03/16 12:14:55;;;;;;;25.17;23.07;;;;;;;;;;5077222;28;20468;-75
2021/03/16 12:17:21;;;;;;;25.53;23.30;;;;;;;;;;5077210;28;20431;-74
2021/03/16 12:19:48;;;;;;;23.92;22.17;;;;;;;;;;5077211;28;20532;-75
2021/03/16 12:22:15;;;;;;;22.90;21.03;;;;;;;;;;5075694;28;20198;-75
2021/03/16 12:24:42;;;;;;;23.47;21.43;;;;;;;;;;5075492;28;20407;-74
2021/03/16 12:27:11;;;;;;;22.33;20.73;;;;;;;;;;5075691;28;20442;-74
2021/03/16 12:29:40;;;;;;;22.23;20.73;;;;;;;;;;5076163;28;20498;-73
2021/03/16 12:32:08;;;;;;;22.88;21.10;;;;;;;;;;5076309;28;20456;-74
2021/03/16 12:34:35;;;;;;;23.00;21.40;;;;;;;;;;5075824;28;20238;-74
2021/03/16 12:37:02;;;;;;;23.23;21.60;;;;;;;;;;5075801;28;20205;-74
2021/03/16 12:39:29;;;;;;;22.77;21.27;;;;;;;;;;5075475;28;20225;-74
2021/03/16 12:41:56;;;;;;;23.70;22.10;;;;;;;;;;5074596;28;20447;-74
2021/03/16 12:44:23;;;;;;;22.27;20.65;;;;;;;;;;5076544;28;20192;-74
2021/03/16 12:46:50;;;;;;;23.60;21.52;;;;;;;;;;5076051;28;20273;-74
2021/03/16 12:49:18;;;;;;;22.13;20.57;;;;;;;;;;5075744;28;20205;-74
2021/03/16 12:51:45;;;;;;;22.27;20.73;;;;;;;;;;5075441;28;20503;-74
2021/03/16 12:54:13;;;;;;;23.25;21.58;;;;;;;;;;5075630;28;20202;-74
2021/03/16 12:56:40;;;;;;;23.23;21.80;;;;;;;;;;5075546;28;20202;-73
2021/03/16 12:59:07;;;;;;;23.17;21.50;;;;;;;;;;5075349;28;20272;-74
2021/03/16 13:01:34;;;;;;;24.80;23.23;;;;;;;;;;5075197;28;20441;-74
2021/03/16 13:04:01;;;;;;;22.60;21.27;;;;;;;;;;5075604;28;20437;-74
2021/03/16 13:06:29;;;;;;;22.70;21.17;;;;;;;;;;5076249;28;20433;-73
2021/03/16 13:08:56;;;;;;;22.42;20.90;;;;;;;;;;5075895;28;20187;-74
2021/03/16 13:11:23;;;;;;;22.60;21.08;;;;;;;;;;5075954;28;20201;-73
2021/03/16 13:13:51;;;;;;;22.20;20.80;;;;;;;;;;5075741;28;20234;-74
2021/03/16 13:16:18;;;;;;;22.85;21.13;;;;;;;;;;5074139;28;20191;-74
2021/03/16 13:18:45;;;;;;;22.03;20.63;;;;;;;;;;5075081;28;20226;-75
2021/03/16 13:21:12;;;;;;;22.60;21.20;;;;;;;;;;5074835;28;20405;-74
2021/03/16 13:23:40;;;;;;;22.65;21.25;;;;;;;;;;5075314;28;20265;-74
2021/03/16 13:26:14;;;;;;;22.63;20.67;;;;;;;;;;5074888;28;20190;-74
2021/03/16 13:28:41;;;;;;;21.70;20.27;;;;;;;;;;5074546;28;20558;-74
2021/03/16 13:31:08;;;;;;;22.00;20.47;;;;;;;;;;5074832;28;20216;-74
2021/03/16 13:33:35;;;;;;;22.83;21.15;;;;;;;;;;5074928;28;20483;-73
2021/03/16 13:36:02;;;;;;;21.83;20.20;;;;;;;;;;5074381;28;20241;-74
2021/03/16 13:38:29;;;;;;;22.20;20.90;;;;;;;;;;5075740;28;20411;-74
2021/03/16 13:40:58;;;;;;;21.77;20.38;;;;;;;;;;5075894;28;20433;-74
2021/03/16 13:43:25;;;;;;;22.80;21.20;;;;;;;;;;5074845;28;20191;-74
2021/03/16 13:45:52;;;;;;;22.75;20.98;;;;;;;;;;5074852;28;20187;-73
2021/03/16 13:48:19;;;;;;;22.10;20.63;;;;;;;;;;5076258;28;20193;-74
2021/03/16 13:50:46;;;;;;;22.37;21.17;;;;;;;;;;5074445;28;20439;-74
2021/03/16 13:53:13;;;;;;;23.20;21.70;;;;;;;;;;5074309;28;20506;-74
2021/03/16 13:55:40;;;;;;;23.47;22.00;;;;;;;;;;5073999;28;20453;-74
2021/03/16 13:58:08;;;;;;;22.47;20.97;;;;;;;;;;5073822;28;20453;-74
2021/03/16 14:00:35;;;;;;;24.20;22.00;;;;;;;;;;5074367;28;20512;-74
2021/03/16 14:03:02;;;;;;;23.23;21.63;;;;;;;;;;5074075;28;20480;-74
2021/03/16 14:05:29;;;;;;;21.93;20.73;;;;;;;;;;5074993;28;20816;-75
2021/03/16 14:07:56;;;;;;;22.97;21.67;;;;;;;;;;5073807;28;20423;-77
2021/03/16 14:10:23;;;;;;;23.93;22.60;;;;;;;;;;5077054;28;20445;-78
2021/03/16 14:12:49;;;;;;;23.48;22.08;;;;;;;;;;5077703;28;20429;-77
2021/03/16 14:15:18;;;;;;;23.57;21.87;;;;;;;;;;5077657;28;20230;-77
2021/03/16 14:17:46;;;;;;;22.17;20.80;;;;;;;;;;5080586;28;20415;-77
2021/03/16 14:20:14;;;;;;;22.98;21.50;;;;;;;;;;5076921;28;20506;-75
2021/03/16 14:22:41;;;;;;;44.38;41.97;;;;;;;;;;5076613;28;20191;-74
2021/03/16 14:25:09;;;;;;;57.22;54.22;;;;;;;;;;5073821;28;20277;-75
2021/03/16 14:27:36;;;;;;;58.58;55.25;;;;;;;;;;5073422;28;20205;-75
2021/03/16 14:30:03;;;;;;;58.58;55.13;;;;;;;;;;5074731;28;20229;-74
2021/03/16 14:32:31;;;;;;;59.30;55.70;;;;;;;;;;5073590;28;20220;-75
2021/03/16 14:34:58;;;;;;;55.55;52.65;;;;;;;;;;5074227;28;20987;-75
2021/03/16 14:37:25;;;;;;;53.45;50.63;;;;;;;;;;5073680;28;20210;-74
2021/03/16 14:39:52;;;;;;;54.45;51.45;;;;;;;;;;5054918;28;20217;-74
2021/03/16 14:42:19;;;;;;;52.08;49.42;;;;;;;;;;5057111;28;20217;-75
2021/03/16 14:44:46;;;;;;;49.42;47.00;;;;;;;;;;5052574;28;20607;-75